Time;durP1;ratioP1;P1;durP2;ratioP2;P2;SDS_P1;SDS_P2;PMS_P1;PMS_P2;Temp;Humidity;BMP_temperature;BMP_pressure;BME280_temperature;BME280_humidity;BME280_pressure;Samples;Min_cycle;Max_cycle;Signal;HPM_P1;HPM_P2
2023/07/16 00:01:41;;;;;;;7.10;3.83;;;;;;;;;;5033972;28;20239;-80
2023/07/16 00:04:45;;;;;;;6.57;4.23;;;;;;;;;;5034083;28;20177;-80
2023/07/16 00:07:50;;;;;;;11.87;4.73;;;;;;;;;;5034173;28;20513;-79
2023/07/16 00:10:53;;;;;;;8.03;4.67;;;;;;;;;;5022005;28;20521;-80
2023/07/16 00:13:58;;;;;;;7.70;4.23;;;;;;;;;;5010772;28;20676;-80
2023/07/16 00:17:02;;;;;;;8.10;4.20;;;;;;;;;;5032937;28;20173;-79
2023/07/16 00:20:07;;;;;;;5.80;4.17;;;;;;;;;;5033720;28;20176;-80
2023/07/16 00:23:11;;;;;;;7.57;4.10;;;;;;;;;;5021778;28;20228;-80
2023/07/16 00:26:15;;;;;;;7.27;4.23;;;;;;;;;;5033957;28;20509;-80
2023/07/16 00:29:20;;;;;;;7.33;3.87;;;;;;;;;;5022231;28;20177;-80
2023/07/16 00:32:24;;;;;;;7.53;4.03;;;;;;;;;;5011327;28;20220;-80
2023/07/16 00:35:28;;;;;;;5.90;4.50;;;;;;;;;;5022235;28;20209;-80
2023/07/16 00:38:32;;;;;;;8.40;4.70;;;;;;;;;;5022818;28;20521;-80
2023/07/16 00:41:36;;;;;;;6.37;4.20;;;;;;;;;;5011033;28;20216;-80
2023/07/16 00:44:40;;;;;;;3.80;3.40;;;;;;;;;;5022686;28;20176;-80
2023/07/16 00:47:45;;;;;;;6.13;4.20;;;;;;;;;;5024615;28;20624;-81
2023/07/16 00:50:52;;;;;;;6.93;4.10;;;;;;;;;;5024902;28;20184;-81
2023/07/16 00:53:56;;;;;;;7.50;4.40;;;;;;;;;;5036302;28;20205;-81
2023/07/16 00:57:00;;;;;;;8.17;4.73;;;;;;;;;;5036390;28;20181;-81
2023/07/16 01:00:05;;;;;;;8.37;4.70;;;;;;;;;;5034983;28;20172;-81
2023/07/16 01:03:13;;;;;;;5.53;4.37;;;;;;;;;;5034080;28;20232;-81
2023/07/16 01:06:33;;;;;;;5.33;4.73;;;;;;;;;;5034768;28;20529;-81
2023/07/16 01:09:41;;;;;;;8.53;5.10;;;;;;;;;;5023080;28;20525;-81
2023/07/16 01:12:46;;;;;;;6.07;4.50;;;;;;;;;;5034202;28;20216;-81
2023/07/16 01:15:49;;;;;;;6.17;4.07;;;;;;;;;;5034309;28;20173;-81
2023/07/16 01:18:54;;;;;;;5.70;4.23;;;;;;;;;;5033437;28;20181;-81
2023/07/16 01:22:31;;;;;;;5.83;4.20;;;;;;;;;;5022302;28;20216;-81
2023/07/16 01:26:13;;;;;;;6.27;4.17;;;;;;;;;;5033126;28;20177;-82
2023/07/16 01:29:46;;;;;;;6.93;4.47;;;;;;;;;;5021892;28;20181;-82
2023/07/16 01:32:51;;;;;;;6.90;4.67;;;;;;;;;;5023603;28;20702;-81
2023/07/16 01:35:56;;;;;;;6.07;4.73;;;;;;;;;;5025228;28;20177;-81
2023/07/16 01:39:01;;;;;;;5.60;4.50;;;;;;;;;;5036592;28;20185;-81
2023/07/16 01:42:06;;;;;;;7.07;5.20;;;;;;;;;;5024700;28;20212;-80
2023/07/16 01:45:10;;;;;;;6.87;4.93;;;;;;;;;;5024672;28;20173;-80
2023/07/16 01:48:30;;;;;;;6.03;4.67;;;;;;;;;;5036007;28;20176;-80
2023/07/16 01:51:34;;;;;;;5.13;4.50;;;;;;;;;;5024829;28;20217;-80
2023/07/16 01:54:38;;;;;;;6.43;4.33;;;;;;;;;;5013300;28;20664;-80
2023/07/16 01:57:42;;;;;;;5.77;4.80;;;;;;;;;;5024756;28;20185;-80
2023/07/16 02:00:48;;;;;;;6.67;4.10;;;;;;;;;;5036063;28;20188;-80
2023/07/16 02:03:52;;;;;;;6.43;4.83;;;;;;;;;;5024774;28;20177;-81
2023/07/16 02:06:56;;;;;;;8.27;4.80;;;;;;;;;;5013481;28;20197;-82
2023/07/16 02:10:01;;;;;;;5.67;4.93;;;;;;;;;;5024832;28;20200;-80
2023/07/16 02:13:04;;;;;;;6.10;4.17;;;;;;;;;;5013320;28;20216;-82
2023/07/16 02:16:09;;;;;;;5.63;4.53;;;;;;;;;;5024905;28;20181;-82
2023/07/16 02:19:13;;;;;;;7.03;4.43;;;;;;;;;;5024583;28;20181;-82
2023/07/16 02:22:17;;;;;;;5.30;4.37;;;;;;;;;;5025249;28;20212;-81
2023/07/16 02:25:21;;;;;;;6.27;4.30;;;;;;;;;;5024311;28;20169;-80
2023/07/16 02:28:26;;;;;;;6.23;4.30;;;;;;;;;;5012601;28;20189;-80
2023/07/16 02:31:31;;;;;;;6.20;4.17;;;;;;;;;;5037236;28;20217;-80
2023/07/16 02:34:35;;;;;;;6.83;4.60;;;;;;;;;;5036372;28;20220;-80
2023/07/16 02:37:39;;;;;;;6.23;4.47;;;;;;;;;;5013235;28;20185;-80
2023/07/16 02:40:47;;;;;;;6.07;3.37;;;;;;;;;;5024389;28;20181;-80
2023/07/16 02:44:04;;;;;;;7.03;3.60;;;;;;;;;;5024020;28;20514;-79
2023/07/16 02:47:08;;;;;;;8.30;3.43;;;;;;;;;;5036847;28;20189;-80
2023/07/16 02:50:12;;;;;;;4.93;3.67;;;;;;;;;;5024483;28;20505;-80
2023/07/16 02:53:16;;;;;;;3.83;3.03;;;;;;;;;;5024859;28;20220;-80
2023/07/16 02:56:20;;;;;;;7.37;3.63;;;;;;;;;;5025357;28;20177;-80
2023/07/16 02:59:24;;;;;;;4.70;3.10;;;;;;;;;;5036326;28;20181;-80
2023/07/16 03:02:29;;;;;;;5.27;3.60;;;;;;;;;;5035777;28;20232;-80
2023/07/16 03:05:33;;;;;;;3.40;3.07;;;;;;;;;;5035964;28;20177;-80
2023/07/16 03:08:37;;;;;;;4.43;3.63;;;;;;;;;;5035463;28;20200;-80
2023/07/16 03:11:41;;;;;;;3.50;3.10;;;;;;;;;;5023157;28;20215;-80
2023/07/16 03:14:45;;;;;;;3.37;2.90;;;;;;;;;;5012124;28;20220;-80
2023/07/16 03:17:50;;;;;;;3.63;3.10;;;;;;;;;;5023782;28;20185;-80
2023/07/16 03:20:54;;;;;;;3.43;3.07;;;;;;;;;;5034880;28;20181;-80
2023/07/16 03:23:58;;;;;;;3.73;2.63;;;;;;;;;;5012158;28;20173;-80
2023/07/16 03:27:03;;;;;;;4.30;2.60;;;;;;;;;;5012120;28;20173;-80
2023/07/16 03:30:07;;;;;;;4.27;2.43;;;;;;;;;;5034306;28;20628;-80
2023/07/16 03:33:12;;;;;;;2.87;2.30;;;;;;;;;;5023498;28;20220;-80
2023/07/16 03:36:17;;;;;;;5.10;2.20;;;;;;;;;;5034498;28;20208;-80
2023/07/16 03:39:21;;;;;;;4.30;2.13;;;;;;;;;;5023311;28;20189;-80
2023/07/16 03:42:25;;;;;;;2.63;2.20;;;;;;;;;;5034076;28;20216;-80
2023/07/16 03:45:32;;;;;;;5.30;2.20;;;;;;;;;;5011938;28;20196;-80
2023/07/16 03:48:37;;;;;;;2.60;2.00;;;;;;;;;;5034649;28;20181;-84
2023/07/16 03:51:41;;;;;;;2.03;1.83;;;;;;;;;;5010921;28;20220;-86
2023/07/16 03:54:47;;;;;;;3.13;1.97;;;;;;;;;;5010257;28;20220;-86
2023/07/16 03:57:52;;;;;;;3.60;2.30;;;;;;;;;;4999568;28;20556;-86
2023/07/16 04:00:56;;;;;;;5.33;2.30;;;;;;;;;;5010455;28;20200;-87
2023/07/16 04:04:01;;;;;;;2.90;2.20;;;;;;;;;;5022156;28;20185;-86
2023/07/16 04:07:06;;;;;;;6.63;2.00;;;;;;;;;;5010869;28;20513;-86
2023/07/16 04:10:10;;;;;;;2.57;2.10;;;;;;;;;;5022215;28;20185;-87
2023/07/16 04:13:14;;;;;;;3.87;2.03;;;;;;;;;;5010577;28;20208;-86
2023/07/16 04:16:18;;;;;;;2.70;1.80;;;;;;;;;;5021953;28;20196;-86
2023/07/16 04:19:23;;;;;;;4.83;2.20;;;;;;;;;;5021945;28;20185;-86
2023/07/16 04:22:27;;;;;;;2.73;2.00;;;;;;;;;;5010560;28;20683;-86
2023/07/16 04:25:31;;;;;;;3.97;1.90;;;;;;;;;;5010504;28;20173;-86
2023/07/16 04:28:35;;;;;;;2.10;1.90;;;;;;;;;;5010681;28;20180;-86
2023/07/16 04:31:39;;;;;;;2.57;1.60;;;;;;;;;;5010348;28;20216;-86
2023/07/16 04:34:43;;;;;;;1.93;1.57;;;;;;;;;;5010344;28;20660;-86
2023/07/16 04:37:48;;;;;;;2.90;1.70;;;;;;;;;;5010468;28;20176;-86
2023/07/16 04:40:52;;;;;;;2.40;1.90;;;;;;;;;;5010281;28;20176;-86
2023/07/16 04:43:56;;;;;;;3.73;2.03;;;;;;;;;;5021714;28;20181;-86
2023/07/16 04:47:00;;;;;;;3.80;1.90;;;;;;;;;;5021608;28;20624;-86
2023/07/16 04:50:05;;;;;;;3.67;1.93;;;;;;;;;;5010481;28;20188;-86
2023/07/16 04:53:10;;;;;;;3.93;1.80;;;;;;;;;;5009702;28;20683;-86
2023/07/16 04:56:15;;;;;;;1.90;1.67;;;;;;;;;;5010018;28;20205;-86
2023/07/16 04:59:19;;;;;;;2.60;1.40;;;;;;;;;;5021042;28;20188;-86
2023/07/16 05:02:23;;;;;;;1.63;1.27;;;;;;;;;;5009633;28;20224;-86
2023/07/16 05:05:27;;;;;;;2.03;1.30;;;;;;;;;;5010280;28;20188;-86
2023/07/16 05:08:33;;;;;;;2.60;1.53;;;;;;;;;;5014146;28;20185;-86
2023/07/16 05:11:38;;;;;;;1.87;1.60;;;;;;;;;;5013807;28;20220;-86
2023/07/16 05:14:52;;;;;;;1.57;1.43;;;;;;;;;;5025749;28;20181;-86
2023/07/16 05:17:57;;;;;;;2.73;1.30;;;;;;;;;;5025201;28;20628;-86
2023/07/16 05:21:01;;;;;;;2.30;1.47;;;;;;;;;;5013738;28;20180;-86
2023/07/16 05:24:05;;;;;;;2.57;1.50;;;;;;;;;;5013868;28;20192;-86
2023/07/16 05:27:09;;;;;;;2.63;1.50;;;;;;;;;;5013898;28;20172;-86
2023/07/16 05:30:13;;;;;;;2.47;1.43;;;;;;;;;;5025048;28;20521;-86
2023/07/16 05:33:17;;;;;;;4.43;1.43;;;;;;;;;;5013391;28;20212;-86
2023/07/16 05:36:22;;;;;;;1.97;1.40;;;;;;;;;;5024943;28;20212;-86
2023/07/16 05:39:26;;;;;;;2.33;1.50;;;;;;;;;;5013583;28;20189;-86
2023/07/16 05:42:30;;;;;;;1.80;1.60;;;;;;;;;;5036009;28;20683;-86
2023/07/16 05:45:34;;;;;;;1.87;1.40;;;;;;;;;;5024492;28;20181;-86
2023/07/16 05:48:38;;;;;;;2.90;1.40;;;;;;;;;;5013393;28;20172;-86
2023/07/16 05:51:42;;;;;;;1.57;1.47;;;;;;;;;;5024893;28;20223;-86
2023/07/16 05:54:46;;;;;;;1.60;1.30;;;;;;;;;;5014155;28;20624;-86
2023/07/16 05:57:51;;;;;;;1.63;1.40;;;;;;;;;;5024536;28;20180;-86
2023/07/16 06:00:54;;;;;;;1.43;1.20;;;;;;;;;;5013016;28;20656;-86
2023/07/16 06:03:59;;;;;;;1.77;1.50;;;;;;;;;;5061768;23;20231;-74
2023/07/16 06:07:03;;;;;;;1.63;1.53;;;;;;;;;;5056046;28;20523;-75
2023/07/16 06:10:08;;;;;;;1.40;1.30;;;;;;;;;;5032390;28;20650;-73
2023/07/16 06:13:12;;;;;;;2.27;1.50;;;;;;;;;;5024349;28;20185;-73
2023/07/16 06:16:16;;;;;;;1.60;1.20;;;;;;;;;;5036077;28;20208;-73
2023/07/16 06:19:21;;;;;;;2.00;1.50;;;;;;;;;;5035454;28;20647;-73
2023/07/16 06:22:25;;;;;;;4.13;1.40;;;;;;;;;;5035684;28;20212;-73
2023/07/16 06:25:29;;;;;;;1.97;1.20;;;;;;;;;;5035908;28;20508;-72
2023/07/16 06:28:33;;;;;;;1.30;1.10;;;;;;;;;;5035905;28;20520;-73
2023/07/16 06:31:37;;;;;;;2.73;1.40;;;;;;;;;;5023381;28;20216;-73
2023/07/16 06:34:41;;;;;;;1.90;1.37;;;;;;;;;;5035801;28;20181;-73
2023/07/16 06:37:47;;;;;;;1.33;1.23;;;;;;;;;;5035518;28;20173;-73
2023/07/16 06:40:52;;;;;;;2.43;1.30;;;;;;;;;;5034772;28;20228;-73
2023/07/16 06:43:56;;;;;;;2.07;1.40;;;;;;;;;;5034910;28;20243;-73
2023/07/16 06:47:00;;;;;;;1.57;1.27;;;;;;;;;;5023383;28;20509;-73
2023/07/16 06:50:05;;;;;;;1.50;1.40;;;;;;;;;;5035191;28;20663;-73
2023/07/16 06:53:09;;;;;;;2.20;1.50;;;;;;;;;;5035737;28;20177;-73
2023/07/16 06:56:13;;;;;;;2.77;1.50;;;;;;;;;;5023467;28;20243;-73
2023/07/16 06:59:17;;;;;;;3.73;1.67;;;;;;;;;;5035366;28;20189;-73
2023/07/16 07:02:21;;;;;;;1.47;1.37;;;;;;;;;;5035323;28;20216;-73
2023/07/16 07:05:25;;;;;;;2.97;1.77;;;;;;;;;;5035239;28;20190;-73
2023/07/16 07:08:30;;;;;;;3.73;1.70;;;;;;;;;;5023043;28;20187;-73
2023/07/16 07:11:34;;;;;;;2.00;1.73;;;;;;;;;;5035068;28;20575;-73
2023/07/16 07:14:38;;;;;;;2.83;1.60;;;;;;;;;;5034147;28;20185;-74
2023/07/16 07:17:42;;;;;;;2.73;1.70;;;;;;;;;;5022811;28;20630;-73
2023/07/16 07:20:49;;;;;;;2.00;1.80;;;;;;;;;;5034801;28;20226;-73
2023/07/16 07:23:53;;;;;;;3.07;1.57;;;;;;;;;;5035093;28;20191;-73
2023/07/16 07:26:58;;;;;;;3.97;2.03;;;;;;;;;;5034787;28;20175;-74
2023/07/16 07:30:02;;;;;;;2.77;1.80;;;;;;;;;;5033242;28;20181;-74
2023/07/16 07:33:06;;;;;;;3.77;1.70;;;;;;;;;;5022412;28;20182;-74
2023/07/16 07:36:10;;;;;;;3.00;1.70;;;;;;;;;;5034464;28;20202;-74
2023/07/16 07:39:16;;;;;;;3.50;1.90;;;;;;;;;;5022274;28;20186;-74
2023/07/16 07:42:20;;;;;;;2.03;1.70;;;;;;;;;;5021825;28;20218;-73
2023/07/16 07:45:24;;;;;;;3.97;1.80;;;;;;;;;;5034062;28;20236;-73
2023/07/16 07:48:28;;;;;;;3.07;1.93;;;;;;;;;;5033455;28;20177;-73
2023/07/16 07:51:32;;;;;;;2.87;1.93;;;;;;;;;;5033347;28;20212;-73
2023/07/16 07:54:37;;;;;;;2.10;1.60;;;;;;;;;;5034205;28;20180;-73
2023/07/16 07:57:41;;;;;;;3.17;1.50;;;;;;;;;;5034074;28;20208;-73
2023/07/16 08:00:45;;;;;;;4.60;1.70;;;;;;;;;;5032896;28;20224;-73
2023/07/16 08:03:49;;;;;;;2.13;1.20;;;;;;;;;;5033677;28;20200;-73
2023/07/16 08:06:54;;;;;;;2.63;1.70;;;;;;;;;;5033820;28;20173;-73
2023/07/16 08:09:58;;;;;;;2.57;1.83;;;;;;;;;;5010337;28;20180;-75
2023/07/16 08:13:02;;;;;;;4.87;1.80;;;;;;;;;;5021769;28;20185;-75
2023/07/16 08:16:06;;;;;;;5.73;2.10;;;;;;;;;;5010198;28;20208;-76
2023/07/16 08:19:10;;;;;;;2.60;1.63;;;;;;;;;;5034308;28;20185;-76
2023/07/16 08:22:14;;;;;;;2.50;1.70;;;;;;;;;;5021216;28;20525;-76
2023/07/16 08:25:18;;;;;;;3.70;1.70;;;;;;;;;;5032848;28;20623;-76
2023/07/16 08:28:22;;;;;;;1.60;1.50;;;;;;;;;;5032602;28;20173;-76
2023/07/16 08:31:27;;;;;;;2.00;1.30;;;;;;;;;;5032572;28;20690;-76
2023/07/16 08:34:30;;;;;;;2.97;1.60;;;;;;;;;;5021057;28;20663;-76
2023/07/16 08:37:35;;;;;;;5.53;1.50;;;;;;;;;;5032462;28;20204;-75
2023/07/16 08:40:39;;;;;;;4.73;1.70;;;;;;;;;;5032981;28;20220;-76
2023/07/16 08:43:46;;;;;;;2.10;1.50;;;;;;;;;;5033540;28;20177;-76
2023/07/16 08:46:51;;;;;;;1.60;1.50;;;;;;;;;;5033524;28;20177;-76
2023/07/16 08:49:55;;;;;;;1.70;1.30;;;;;;;;;;5010174;28;20501;-76
2023/07/16 08:53:01;;;;;;;2.87;1.60;;;;;;;;;;5012557;28;20193;-76
2023/07/16 08:56:05;;;;;;;4.87;1.37;;;;;;;;;;5013580;28;20209;-76
2023/07/16 08:59:10;;;;;;;1.80;1.43;;;;;;;;;;5013337;28;20180;-76
2023/07/16 09:02:18;;;;;;;2.93;1.30;;;;;;;;;;5013261;28;20219;-77
2023/07/16 09:05:22;;;;;;;3.07;1.70;;;;;;;;;;5013547;28;20187;-75
2023/07/16 09:08:28;;;;;;;3.47;1.40;;;;;;;;;;5001531;28;20175;-74
2023/07/16 09:11:33;;;;;;;4.23;2.07;;;;;;;;;;5013226;28;20562;-75
2023/07/16 09:14:41;;;;;;;2.17;1.30;;;;;;;;;;5012407;28;20548;-75
2023/07/16 09:17:49;;;;;;;1.60;1.50;;;;;;;;;;5012334;28;20225;-76
2023/07/16 09:21:05;;;;;;;2.97;1.67;;;;;;;;;;5001204;28;20221;-77
2023/07/16 09:24:10;;;;;;;2.13;1.73;;;;;;;;;;5012914;28;20183;-77
2023/07/16 09:27:14;;;;;;;2.25;1.48;;;;;;;;;;5012829;28;20525;-76
2023/07/16 09:30:18;;;;;;;2.28;1.40;;;;;;;;;;5012067;28;20662;-76
2023/07/16 09:33:25;;;;;;;2.55;1.60;;;;;;;;;;5023832;28;20181;-73
2023/07/16 09:36:30;;;;;;;2.28;1.48;;;;;;;;;;5012941;28;20217;-74
2023/07/16 09:39:36;;;;;;;2.55;1.50;;;;;;;;;;5013287;28;20179;-74
2023/07/16 09:42:42;;;;;;;2.75;1.95;;;;;;;;;;5012907;28;20649;-75
2023/07/16 09:45:46;;;;;;;1.77;1.55;;;;;;;;;;5012810;28;20663;-75
2023/07/16 09:48:51;;;;;;;1.70;1.58;;;;;;;;;;5013072;28;20177;-74
2023/07/16 09:51:57;;;;;;;2.50;1.58;;;;;;;;;;5012814;28;20556;-75
2023/07/16 09:55:03;;;;;;;2.17;1.60;;;;;;;;;;5015580;28;20641;-74
2023/07/16 09:58:10;;;;;;;1.60;1.50;;;;;;;;;;5015721;28;20215;-74
2023/07/16 10:01:15;;;;;;;4.10;1.67;;;;;;;;;;5016298;28;20209;-74
2023/07/16 10:04:20;;;;;;;1.45;1.30;;;;;;;;;;5016127;28;20204;-74
2023/07/16 10:07:26;;;;;;;3.22;1.50;;;;;;;;;;5016170;28;20182;-74
2023/07/16 10:10:41;;;;;;;1.48;1.17;;;;;;;;;;5016339;28;20655;-74
2023/07/16 10:13:50;;;;;;;2.33;1.50;;;;;;;;;;5015390;28;20185;-74
2023/07/16 10:17:01;;;;;;;1.92;1.67;;;;;;;;;;5015340;28;20205;-74
2023/07/16 10:20:07;;;;;;;1.58;1.40;;;;;;;;;;5015990;28;20197;-74
2023/07/16 10:23:13;;;;;;;3.38;1.50;;;;;;;;;;5015382;28;20189;-73
2023/07/16 10:26:17;;;;;;;2.97;1.50;;;;;;;;;;5015252;28;20190;-73
2023/07/16 10:29:21;;;;;;;2.00;1.50;;;;;;;;;;5015997;28;20180;-74
2023/07/16 10:32:30;;;;;;;2.13;1.40;;;;;;;;;;5015596;28;20696;-73
2023/07/16 10:35:35;;;;;;;3.35;1.30;;;;;;;;;;5015029;28;20181;-74
2023/07/16 10:38:42;;;;;;;3.45;1.50;;;;;;;;;;5015462;28;20174;-74
2023/07/16 10:41:46;;;;;;;1.55;1.20;;;;;;;;;;5014664;28;20217;-74
2023/07/16 10:44:54;;;;;;;1.83;1.50;;;;;;;;;;5015733;28;20170;-76
2023/07/16 10:47:59;;;;;;;2.00;1.30;;;;;;;;;;5015091;28;20170;-75
2023/07/16 10:51:03;;;;;;;1.67;1.50;;;;;;;;;;5015452;28;20214;-76
2023/07/16 10:54:07;;;;;;;2.00;1.27;;;;;;;;;;5015523;28;20515;-75
2023/07/16 10:57:12;;;;;;;2.13;1.58;;;;;;;;;;5014588;28;20209;-76
2023/07/16 11:00:17;;;;;;;2.92;1.60;;;;;;;;;;5014441;28;20178;-76
2023/07/16 11:03:21;;;;;;;2.78;1.52;;;;;;;;;;5014831;28;20201;-76
2023/07/16 11:06:25;;;;;;;3.85;1.90;;;;;;;;;;5014899;28;20182;-76
2023/07/16 11:09:31;;;;;;;2.33;1.48;;;;;;;;;;5014937;28;20197;-76
2023/07/16 11:12:35;;;;;;;2.05;1.70;;;;;;;;;;5014805;28;20213;-76
2023/07/16 11:15:40;;;;;;;1.40;1.30;;;;;;;;;;5002823;28;20186;-73
2023/07/16 11:18:44;;;;;;;2.00;1.38;;;;;;;;;;5014875;28;20205;-73
2023/07/16 11:21:48;;;;;;;1.42;1.20;;;;;;;;;;5014734;28;20221;-73
2023/07/16 11:24:53;;;;;;;1.67;1.30;;;;;;;;;;5014972;28;20182;-73
2023/07/16 11:27:57;;;;;;;3.28;1.40;;;;;;;;;;5015010;28;20174;-73
2023/07/16 11:31:16;;;;;;;2.67;1.55;;;;;;;;;;5013592;28;20688;-73
2023/07/16 11:34:21;;;;;;;2.53;1.50;;;;;;;;;;5014278;28;20193;-73
2023/07/16 11:37:26;;;;;;;1.75;1.55;;;;;;;;;;5014252;28;20210;-75
2023/07/16 11:40:30;;;;;;;1.65;1.45;;;;;;;;;;5014186;28;20198;-73
2023/07/16 11:43:35;;;;;;;1.73;1.52;;;;;;;;;;5014811;28;20178;-73
2023/07/16 11:46:40;;;;;;;2.75;1.77;;;;;;;;;;5014301;28;20186;-73
2023/07/16 11:49:44;;;;;;;2.92;1.80;;;;;;;;;;5013388;28;20174;-73
2023/07/16 11:52:56;;;;;;;5.18;1.98;;;;;;;;;;5013658;28;20174;-73
2023/07/16 11:56:00;;;;;;;2.88;2.03;;;;;;;;;;5014088;28;20186;-73
2023/07/16 11:59:04;;;;;;;3.17;1.70;;;;;;;;;;5014325;28;20178;-73
2023/07/16 12:02:09;;;;;;;2.72;1.58;;;;;;;;;;5013832;28;20221;-74
2023/07/16 12:05:13;;;;;;;5.32;1.90;;;;;;;;;;5014268;28;20178;-73
2023/07/16 12:08:17;;;;;;;2.05;1.70;;;;;;;;;;5006776;22;20579;-72
2023/07/16 12:11:22;;;;;;;2.42;2.03;;;;;;;;;;4974755;28;20219;-72
2023/07/16 12:14:26;;;;;;;2.67;1.50;;;;;;;;;;4974138;28;20183;-72
2023/07/16 12:17:30;;;;;;;3.00;2.13;;;;;;;;;;4974737;28;20211;-72
2023/07/16 12:20:36;;;;;;;2.05;1.50;;;;;;;;;;4974635;28;20500;-72
2023/07/16 12:23:40;;;;;;;1.85;1.52;;;;;;;;;;4974163;28;20183;-72
2023/07/16 12:26:45;;;;;;;1.92;1.45;;;;;;;;;;4974604;28;20175;-72
2023/07/16 12:29:48;;;;;;;2.97;1.55;;;;;;;;;;4973812;28;20518;-72
2023/07/16 12:32:53;;;;;;;1.60;1.45;;;;;;;;;;4975065;28;20183;-72
2023/07/16 12:35:57;;;;;;;2.72;1.88;;;;;;;;;;4974464;28;20186;-72
2023/07/16 12:39:01;;;;;;;1.70;1.35;;;;;;;;;;4974329;28;20697;-72
2023/07/16 12:42:05;;;;;;;2.60;1.20;;;;;;;;;;4975276;28;20215;-72
2023/07/16 12:45:10;;;;;;;2.35;1.67;;;;;;;;;;4974346;28;20206;-72
2023/07/16 12:48:13;;;;;;;3.70;2.03;;;;;;;;;;4973521;28;20176;-72
2023/07/16 12:51:17;;;;;;;2.25;1.50;;;;;;;;;;4973439;28;20560;-72
2023/07/16 12:54:22;;;;;;;2.08;1.70;;;;;;;;;;4974514;28;20627;-72
2023/07/16 12:57:26;;;;;;;4.07;1.50;;;;;;;;;;4973382;28;20215;-72
2023/07/16 13:00:30;;;;;;;2.13;1.50;;;;;;;;;;4973327;28;20187;-72
2023/07/16 13:03:33;;;;;;;2.55;1.40;;;;;;;;;;4962318;28;20526;-72
2023/07/16 13:06:38;;;;;;;2.00;1.42;;;;;;;;;;4974419;28;20207;-72
2023/07/16 13:09:42;;;;;;;2.55;1.48;;;;;;;;;;4974099;28;20175;-72
2023/07/16 13:12:46;;;;;;;3.88;1.70;;;;;;;;;;4974347;28;20178;-72
2023/07/16 13:15:51;;;;;;;1.67;1.42;;;;;;;;;;4974360;28;20183;-72
2023/07/16 13:18:55;;;;;;;2.58;2.13;;;;;;;;;;4973941;28;20211;-72
2023/07/16 13:21:59;;;;;;;2.70;1.70;;;;;;;;;;4973137;28;20214;-72
2023/07/16 13:25:04;;;;;;;3.42;1.85;;;;;;;;;;4974357;28;20634;-72
2023/07/16 13:28:08;;;;;;;3.17;1.60;;;;;;;;;;4976816;28;20183;-72
2023/07/16 13:31:12;;;;;;;2.95;1.85;;;;;;;;;;4977768;28;20215;-72
2023/07/16 13:34:16;;;;;;;3.53;1.83;;;;;;;;;;4966178;28;20179;-73
2023/07/16 13:37:21;;;;;;;2.25;1.85;;;;;;;;;;4977595;28;20183;-72
2023/07/16 13:40:25;;;;;;;1.63;1.52;;;;;;;;;;4977274;28;20183;-72
2023/07/16 13:43:29;;;;;;;2.30;1.80;;;;;;;;;;4976824;28;20535;-72
2023/07/16 13:46:33;;;;;;;2.45;1.65;;;;;;;;;;4976936;28;20179;-72
2023/07/16 13:49:37;;;;;;;2.75;2.00;;;;;;;;;;4977462;28;20198;-72
2023/07/16 13:52:41;;;;;;;1.90;1.70;;;;;;;;;;4977293;28;20674;-72
2023/07/16 13:55:45;;;;;;;2.33;1.63;;;;;;;;;;4977912;28;20623;-71
2023/07/16 13:58:50;;;;;;;1.65;1.50;;;;;;;;;;4977460;28;20211;-71
2023/07/16 14:02:02;;;;;;;2.38;1.40;;;;;;;;;;4977172;28;20219;-72
2023/07/16 14:05:07;;;;;;;1.55;1.45;;;;;;;;;;4965243;28;20540;-72
2023/07/16 14:08:11;;;;;;;2.28;1.60;;;;;;;;;;4977095;28;20669;-71
2023/07/16 14:11:18;;;;;;;4.45;1.67;;;;;;;;;;4977009;28;20219;-71
2023/07/16 14:14:22;;;;;;;1.83;1.52;;;;;;;;;;4977230;28;20184;-71
2023/07/16 14:17:26;;;;;;;2.00;1.80;;;;;;;;;;4976403;28;20191;-71
2023/07/16 14:20:31;;;;;;;3.60;1.85;;;;;;;;;;4977058;28;20183;-71
2023/07/16 14:23:35;;;;;;;1.60;1.50;;;;;;;;;;4976307;28;20186;-71
2023/07/16 14:26:39;;;;;;;1.88;1.65;;;;;;;;;;4976826;28;20181;-71
2023/07/16 14:29:43;;;;;;;2.00;1.70;;;;;;;;;;4976983;28;20183;-71
2023/07/16 14:32:47;;;;;;;2.60;1.70;;;;;;;;;;4976762;28;20645;-72
2023/07/16 14:35:51;;;;;;;1.48;1.30;;;;;;;;;;4976886;28;20182;-71
2023/07/16 14:38:55;;;;;;;2.83;1.48;;;;;;;;;;4964369;28;20665;-72
2023/07/16 14:42:03;;;;;;;1.50;1.38;;;;;;;;;;4976579;28;20697;-71
2023/07/16 14:45:07;;;;;;;1.98;1.15;;;;;;;;;;4976544;28;20180;-71
2023/07/16 14:48:12;;;;;;;1.40;1.30;;;;;;;;;;4976453;28;20202;-71
2023/07/16 14:51:16;;;;;;;1.60;1.50;;;;;;;;;;4976362;28;20221;-71
2023/07/16 14:54:20;;;;;;;1.90;1.50;;;;;;;;;;4976480;28;20185;-71
2023/07/16 14:57:25;;;;;;;1.95;1.60;;;;;;;;;;4976621;28;20527;-71
2023/07/16 15:00:29;;;;;;;1.67;1.27;;;;;;;;;;4975724;28;20180;-71
2023/07/16 15:03:35;;;;;;;1.70;1.17;;;;;;;;;;4975703;28;20183;-71
2023/07/16 15:06:40;;;;;;;1.75;1.52;;;;;;;;;;4976206;28;20179;-72
2023/07/16 15:09:44;;;;;;;2.45;1.58;;;;;;;;;;4975619;28;20175;-71
2023/07/16 15:12:48;;;;;;;1.60;1.40;;;;;;;;;;4976037;28;20187;-71
2023/07/16 15:15:52;;;;;;;1.70;1.50;;;;;;;;;;4976007;28;20183;-71
2023/07/16 15:18:56;;;;;;;2.05;1.30;;;;;;;;;;4975814;28;20206;-71
2023/07/16 15:22:00;;;;;;;1.65;1.50;;;;;;;;;;4972784;28;20210;-71
2023/07/16 15:25:05;;;;;;;2.20;1.73;;;;;;;;;;4974872;28;20195;-71
2023/07/16 15:28:11;;;;;;;3.42;1.50;;;;;;;;;;4976059;28;20188;-71
2023/07/16 15:31:15;;;;;;;2.60;1.48;;;;;;;;;;4975022;28;20214;-71
2023/07/16 15:34:19;;;;;;;3.05;1.45;;;;;;;;;;4975668;28;20524;-71
2023/07/16 15:37:23;;;;;;;3.60;1.55;;;;;;;;;;4975637;28;20192;-71
2023/07/16 15:40:27;;;;;;;1.77;1.50;;;;;;;;;;4974975;28;20171;-71
2023/07/16 15:43:31;;;;;;;1.90;1.58;;;;;;;;;;4974689;28;20182;-71
2023/07/16 15:46:35;;;;;;;1.50;1.40;;;;;;;;;;4975414;28;20187;-71
2023/07/16 15:49:39;;;;;;;2.42;1.60;;;;;;;;;;4974714;28;20199;-71
2023/07/16 15:52:44;;;;;;;2.03;1.40;;;;;;;;;;4975161;28;20199;-71
2023/07/16 15:55:48;;;;;;;2.15;1.50;;;;;;;;;;4975567;28;20183;-71
2023/07/16 15:58:52;;;;;;;1.40;1.20;;;;;;;;;;4975159;28;20670;-71
2023/07/16 16:01:57;;;;;;;2.53;1.60;;;;;;;;;;4975094;28;20216;-71
2023/07/16 16:05:02;;;;;;;2.42;1.60;;;;;;;;;;4975396;28;20194;-71
2023/07/16 16:08:18;;;;;;;4.95;1.60;;;;;;;;;;4974871;28;20213;-71
2023/07/16 16:11:23;;;;;;;2.47;1.40;;;;;;;;;;4975058;28;20231;-71
2023/07/16 16:14:27;;;;;;;4.43;1.73;;;;;;;;;;4975274;28;20204;-71
2023/07/16 16:17:31;;;;;;;3.30;1.52;;;;;;;;;;4975438;28;20193;-71
2023/07/16 16:20:36;;;;;;;3.22;1.77;;;;;;;;;;4974777;28;20221;-71
2023/07/16 16:23:40;;;;;;;4.72;1.88;;;;;;;;;;4973953;28;20203;-71
2023/07/16 16:26:44;;;;;;;3.50;1.70;;;;;;;;;;4962841;28;20200;-71
2023/07/16 16:29:48;;;;;;;3.55;1.67;;;;;;;;;;4974692;28;20179;-71
2023/07/16 16:32:54;;;;;;;1.60;1.50;;;;;;;;;;4974629;28;20190;-71
2023/07/16 16:35:58;;;;;;;2.95;1.70;;;;;;;;;;4974640;28;20185;-71
2023/07/16 16:39:02;;;;;;;3.10;1.70;;;;;;;;;;4973921;28;20233;-71
2023/07/16 16:42:06;;;;;;;4.00;2.00;;;;;;;;;;4974696;28;20220;-71
2023/07/16 16:45:11;;;;;;;2.65;1.80;;;;;;;;;;4974490;28;20252;-71
2023/07/16 16:48:15;;;;;;;3.90;1.60;;;;;;;;;;4974469;28;20192;-71
2023/07/16 16:51:19;;;;;;;3.80;1.73;;;;;;;;;;4973711;28;20225;-71
2023/07/16 16:54:24;;;;;;;2.50;1.90;;;;;;;;;;4974370;28;20189;-71
2023/07/16 16:57:29;;;;;;;4.53;2.20;;;;;;;;;;4974365;28;20180;-71
2023/07/16 17:00:33;;;;;;;3.40;1.80;;;;;;;;;;4974358;28;20242;-71
2023/07/16 17:03:38;;;;;;;2.60;2.00;;;;;;;;;;4974163;28;20192;-71
2023/07/16 17:06:42;;;;;;;2.00;1.80;;;;;;;;;;4973533;28;20177;-71
2023/07/16 17:09:48;;;;;;;2.78;1.70;;;;;;;;;;4973727;28;20177;-71
2023/07/16 17:12:52;;;;;;;2.60;1.90;;;;;;;;;;4974438;28;20181;-71
2023/07/16 17:15:56;;;;;;;2.67;1.80;;;;;;;;;;4973649;28;20648;-71
2023/07/16 17:19:00;;;;;;;3.08;1.70;;;;;;;;;;4974367;28;20209;-71
2023/07/16 17:22:04;;;;;;;2.70;1.40;;;;;;;;;;4967528;28;20217;-71
2023/07/16 17:25:09;;;;;;;3.13;1.80;;;;;;;;;;4973745;28;20643;-71
2023/07/16 17:28:13;;;;;;;2.42;1.60;;;;;;;;;;4974356;28;20522;-71
2023/07/16 17:31:17;;;;;;;2.22;1.80;;;;;;;;;;4973181;28;20214;-71
2023/07/16 17:34:22;;;;;;;3.03;1.83;;;;;;;;;;4974016;28;20190;-71
2023/07/16 17:37:26;;;;;;;3.50;1.80;;;;;;;;;;4973207;28;20182;-71
2023/07/16 17:40:30;;;;;;;3.50;1.70;;;;;;;;;;4974139;28;20212;-71
2023/07/16 17:43:34;;;;;;;3.17;1.70;;;;;;;;;;4973973;28;20183;-71
2023/07/16 17:46:39;;;;;;;1.88;1.52;;;;;;;;;;4962091;28;20179;-71
2023/07/16 17:49:43;;;;;;;2.95;1.77;;;;;;;;;;4973883;28;20201;-71
2023/07/16 17:52:47;;;;;;;2.35;1.80;;;;;;;;;;4961965;28;20202;-71
2023/07/16 17:55:52;;;;;;;3.20;1.65;;;;;;;;;;4973352;28;20183;-71
2023/07/16 17:58:56;;;;;;;3.17;1.90;;;;;;;;;;4973868;28;20207;-71
2023/07/16 18:02:00;;;;;;;2.15;1.95;;;;;;;;;;4973745;28;20222;-71
2023/07/16 18:05:04;;;;;;;5.60;2.20;;;;;;;;;;4973772;28;20186;-71
2023/07/16 18:08:08;;;;;;;3.92;1.70;;;;;;;;;;5001984;22;20243;-73
2023/07/16 18:11:12;;;;;;;3.60;1.90;;;;;;;;;;5012361;28;20680;-74
2023/07/16 18:14:17;;;;;;;2.45;1.92;;;;;;;;;;5014494;28;20195;-74
2023/07/16 18:17:20;;;;;;;2.87;1.70;;;;;;;;;;5004627;28;20529;-74
2023/07/16 18:20:25;;;;;;;2.63;1.97;;;;;;;;;;5015341;28;20223;-74
2023/07/16 18:23:29;;;;;;;3.90;1.90;;;;;;;;;;5015827;28;20203;-74
2023/07/16 18:26:36;;;;;;;3.25;2.08;;;;;;;;;;5016310;28;20191;-75
2023/07/16 18:29:40;;;;;;;3.50;2.07;;;;;;;;;;5016075;28;20175;-74